METAR Data
IDs: Format: Raw Decoded Include TAF

Data at: 1214 UTC 20 Oct 2021

ESKM 201150Z AUTO 22008KT 180V270 9999 BKN017/// 12/12 Q0979